Time;durP1;ratioP1;P1;durP2;ratioP2;P2;SDS_P1;SDS_P2;PMS_P1;PMS_P2;Temp;Humidity;BMP_temperature;BMP_pressure;BME280_temperature;BME280_humidity;BME280_pressure;Samples;Min_cycle;Max_cycle;Signal;HPM_P1;HPM_P2
2022/05/04 00:00:00;;;;;;;;;;;;;;;19.62;nan;95230.78;2060382;28;1602;-61
2022/05/04 00:01:01;;;;;;;;;;;;;;;19.63;nan;95226.25;2064808;28;1058;-61
2022/05/04 00:02:03;;;;;;;;;;;;;;;19.62;nan;95237.94;2056450;28;1701;-61
2022/05/04 00:03:05;;;;;;;;;;;;;;;19.62;nan;95224.63;2063367;28;1496;-64
2022/05/04 00:04:06;;;;;;;;;;;;;;;19.62;nan;95229.97;2061317;28;1454;-61
2022/05/04 00:05:08;;;;;;;;;;;;;;;19.60;nan;95232.81;2060853;28;1679;-61
2022/05/04 00:06:10;;;;;;;;;;;;;;;19.62;nan;95227.28;2061326;28;1060;-59
2022/05/04 00:07:12;;;;;;;;;;;;;;;19.61;nan;95229.13;2055526;28;1675;-62
2022/05/04 00:08:13;;;;;;;;;;;;;;;19.59;nan;95222.38;2060813;28;1543;-60
2022/05/04 00:09:15;;;;;;;;;;;;;;;19.61;nan;95228.31;2059701;28;1602;-62
2022/05/04 00:10:16;;;;;;;;;;;;;;;19.59;nan;95223.19;2064503;28;1907;-62
2022/05/04 00:11:18;;;;;;;;;;;;;;;19.59;nan;95225.03;2065880;28;1018;-63
2022/05/04 00:12:20;;;;;;;;;;;;;;;19.59;nan;95219.69;2059362;28;1661;-62
2022/05/04 00:13:21;;;;;;;;;;;;;;;19.62;nan;95224.63;2057013;28;1434;-62
2022/05/04 00:14:25;;;;;;;;;;;;;;;19.62;nan;95227.28;2057230;28;1659;-62
2022/05/04 00:15:27;;;;;;;;;;;;;;;19.62;nan;95224.63;2049341;28;1397;-62
2022/05/04 00:16:29;;;;;;;;;;;;;;;19.61;nan;95226.47;2049796;28;885;-62
2022/05/04 00:17:31;;;;;;;;;;;;;;;19.60;nan;95221.34;2046159;28;1531;-61
2022/05/04 00:18:33;;;;;;;;;;;;;;;19.60;nan;95221.34;2059717;28;1532;-63
2022/05/04 00:19:35;;;;;;;;;;;;;;;19.59;nan;95217.03;2062900;28;1567;-62
2022/05/04 00:20:37;;;;;;;;;;;;;;;19.58;nan;95216.22;2065322;28;1413;-61
2022/05/04 00:21:38;;;;;;;;;;;;;;;19.60;nan;95216.81;2065697;28;1280;-64
2022/05/04 00:22:40;;;;;;;;;;;;;;;19.61;nan;95221.16;2064191;28;1491;-62
2022/05/04 00:23:41;;;;;;;;;;;;;;;19.60;nan;95221.34;2059195;28;1534;-63
2022/05/04 00:24:43;;;;;;;;;;;;;;;19.62;nan;95220.09;2057626;28;1662;-62
2022/05/04 00:25:45;;;;;;;;;;;;;;;19.63;nan;95221.78;2065813;28;1030;-64
2022/05/04 00:26:46;;;;;;;;;;;;;;;19.64;nan;95227.91;2065086;28;1545;-64
2022/05/04 00:27:48;;;;;;;;;;;;;;;19.63;nan;95218.25;2065724;28;1003;-61
2022/05/04 00:28:50;;;;;;;;;;;;;;;19.64;nan;95223.41;2057636;28;1528;-60
2022/05/04 00:29:51;;;;;;;;;;;;;;;19.64;nan;95225.25;2052440;28;1682;-61
2022/05/04 00:30:53;;;;;;;;;;;;;;;19.66;nan;95220.53;2057641;28;1895;-61
2022/05/04 00:31:55;;;;;;;;;;;;;;;19.65;nan;95219.72;2056538;28;1522;-61
2022/05/04 00:32:57;;;;;;;;;;;;;;;19.66;nan;95226.69;2055175;28;1669;-60
2022/05/04 00:33:58;;;;;;;;;;;;;;;19.66;nan;95229.38;2049658;28;1012;-63
2022/05/04 00:35:00;;;;;;;;;;;;;;;19.63;nan;95220.94;2056791;28;1614;-63
2022/05/04 00:36:02;;;;;;;;;;;;;;;19.64;nan;95217.25;2065687;28;1006;-61
2022/05/04 00:37:03;;;;;;;;;;;;;;;19.61;nan;95223.81;2065132;28;975;-64
2022/05/04 00:38:05;;;;;;;;;;;;;;;19.61;nan;95226.47;2057051;28;1562;-63
2022/05/04 00:39:07;;;;;;;;;;;;;;;19.63;nan;95223.59;2065081;28;1014;-62
2022/05/04 00:40:09;;;;;;;;;;;;;;;19.63;nan;95226.25;2067527;28;1493;-63
2022/05/04 00:41:10;;;;;;;;;;;;;;;19.60;nan;95219.47;2052932;28;1840;-62
2022/05/04 00:42:12;;;;;;;;;;;;;;;19.62;nan;95221.97;2072105;28;1936;-62
2022/05/04 00:43:24;;;;;;;;;;;;;;;19.59;nan;95225.84;2072671;28;1030;-62
2022/05/04 00:44:25;;;;;;;;;;;;;;;19.61;nan;95223.00;2049393;28;1616;-61
2022/05/04 00:45:27;;;;;;;;;;;;;;;19.60;nan;95224.00;2050240;28;1499;-63
2022/05/04 00:46:29;;;;;;;;;;;;;;;19.61;nan;95223.81;2048909;29;1713;-62
2022/05/04 00:47:31;;;;;;;;;;;;;;;19.59;nan;95225.84;2054839;28;1681;-61
2022/05/04 00:48:34;;;;;;;;;;;;;;;19.60;nan;95221.34;2065520;28;1093;-62
2022/05/04 00:49:36;;;;;;;;;;;;;;;19.60;nan;95227.47;2065691;28;1089;-63
2022/05/04 00:50:38;;;;;;;;;;;;;;;19.62;nan;95228.09;2060062;28;1902;-63
2022/05/04 00:51:40;;;;;;;;;;;;;;;19.61;nan;95228.31;2057724;28;1665;-62
2022/05/04 00:52:43;;;;;;;;;;;;;;;19.61;nan;95229.13;2053379;28;1577;-62
2022/05/04 00:53:45;;;;;;;;;;;;;;;19.61;nan;95228.31;2065057;28;1069;-62
2022/05/04 00:54:48;;;;;;;;;;;;;;;19.61;nan;95231.00;2061019;28;1460;-63
2022/05/04 00:55:50;;;;;;;;;;;;;;;19.59;nan;95235.69;2057516;28;1670;-65
2022/05/04 00:56:52;;;;;;;;;;;;;;;19.60;nan;95232.00;2057461;28;1620;-62
2022/05/04 00:59:15;;;;;;;;;;;;;;;19.63;nan;95235.09;2049445;28;1630;-60
2022/05/04 01:00:17;;;;;;;;;;;;;;;19.67;nan;95235.50;2056652;28;1635;-61
2022/05/04 01:01:19;;;;;;;;;;;;;;;19.67;nan;95236.34;2056721;28;1455;-60
2022/05/04 01:02:21;;;;;;;;;;;;;;;19.64;nan;95242.06;2057646;28;1368;-63
2022/05/04 01:03:22;;;;;;;;;;;;;;;19.63;nan;95242.25;2049340;28;1118;-61
2022/05/04 01:04:25;;;;;;;;;;;;;;;19.62;nan;95240.63;2055841;28;1551;-61
2022/05/04 01:05:26;;;;;;;;;;;;;;;19.63;nan;95247.59;2065491;28;1635;-67
2022/05/04 01:06:28;;;;;;;;;;;;;;;19.65;nan;95249.03;2064443;28;1164;-66
2022/05/04 01:07:30;;;;;;;;;;;;;;;19.66;nan;95241.84;2049730;28;1630;-63
2022/05/04 01:08:31;;;;;;;;;;;;;;;19.66;nan;95245.38;2062558;28;1751;-66
2022/05/04 01:09:33;;;;;;;;;;;;;;;19.68;nan;95245.16;2061613;28;1677;-66
2022/05/04 01:10:34;;;;;;;;;;;;;;;19.67;nan;95248.84;2057337;28;1973;-66
2022/05/04 01:11:36;;;;;;;;;;;;;;;19.68;nan;95250.47;2057455;28;1098;-66
2022/05/04 01:12:47;;;;;;;;;;;;;;;19.68;nan;95250.47;2064345;28;1571;-66
2022/05/04 01:13:59;;;;;;;;;;;;;;;19.70;nan;95255.63;2064505;28;1571;-67
2022/05/04 01:15:01;;;;;;;;;;;;;;;19.69;nan;95257.47;2051914;28;1564;-66
2022/05/04 01:16:03;;;;;;;;;;;;;;;19.69;nan;95256.63;2059317;28;1581;-67
2022/05/04 01:17:04;;;;;;;;;;;;;;;19.69;nan;95257.47;2065456;28;1088;-66
2022/05/04 01:18:06;;;;;;;;;;;;;;;19.70;nan;95251.09;2064676;28;1555;-66
2022/05/04 01:19:09;;;;;;;;;;;;;;;19.70;nan;95252.97;2065434;28;995;-66
2022/05/04 01:20:11;;;;;;;;;;;;;;;19.69;nan;95246.81;2065226;28;1111;-65
2022/05/04 01:21:13;;;;;;;;;;;;;;;19.70;nan;95250.28;2065776;28;1025;-66
2022/05/04 01:22:14;;;;;;;;;;;;;;;19.70;nan;95247.63;2064881;28;1297;-67
2022/05/04 01:23:16;;;;;;;;;;;;;;;19.68;nan;95253.16;2059952;28;1493;-66
2022/05/04 01:24:18;;;;;;;;;;;;;;;19.67;nan;95254.19;2057430;28;1734;-64
2022/05/04 01:25:20;;;;;;;;;;;;;;;19.67;nan;95255.00;2065499;28;1687;-62
2022/05/04 01:26:21;;;;;;;;;;;;;;;19.66;nan;95248.03;2059461;28;1380;-63
2022/05/04 01:27:25;;;;;;;;;;;;;;;19.65;nan;95245.56;2056988;28;1638;-61
2022/05/04 01:28:26;;;;;;;;;;;;;;;19.64;nan;95252.72;2066389;28;1145;-63
2022/05/04 01:29:28;;;;;;;;;;;;;;;19.62;nan;95246.75;2065161;28;1623;-63
2022/05/04 01:30:34;;;;;;;;;;;;;;;19.62;nan;95252.09;2067046;28;1018;-64
2022/05/04 01:31:35;;;;;;;;;;;;;;;19.61;nan;95250.47;2067491;28;1105;-63
2022/05/04 01:32:37;;;;;;;;;;;;;;;19.60;nan;95247.97;2064566;28;1443;-63
2022/05/04 01:33:39;;;;;;;;;;;;;;;19.60;nan;95245.31;2067334;28;1022;-64
2022/05/04 01:34:40;;;;;;;;;;;;;;;19.60;nan;95248.81;2063245;28;1629;-65
2022/05/04 01:35:46;;;;;;;;;;;;;;;19.58;nan;95245.53;2068612;28;1511;-64
2022/05/04 01:36:48;;;;;;;;;;;;;;;19.59;nan;95246.34;2060550;28;1667;-59
2022/05/04 01:37:49;;;;;;;;;;;;;;;19.57;nan;95254.53;2054623;28;1571;-58
2022/05/04 01:38:51;;;;;;;;;;;;;;;19.57;nan;95248.38;2067170;28;1101;-58
2022/05/04 01:39:53;;;;;;;;;;;;;;;19.58;nan;95250.88;2066987;28;1030;-57
2022/05/04 01:40:55;;;;;;;;;;;;;;;19.57;nan;95243.88;2062750;28;1599;-57
2022/05/04 01:42:02;;;;;;;;;;;;;;;19.57;nan;95245.72;2058931;28;1625;-57
2022/05/04 01:43:04;;;;;;;;;;;;;;;19.57;nan;95245.72;2058630;28;1497;-57
2022/05/04 01:44:05;;;;;;;;;;;;;;;19.56;nan;95252.09;2058694;28;1029;-57
2022/05/04 01:45:09;;;;;;;;;;;;;;;19.55;nan;95248.59;2069460;28;1659;-58
2022/05/04 01:46:10;;;;;;;;;;;;;;;19.56;nan;95249.41;2066237;28;1023;-59
2022/05/04 01:47:12;;;;;;;;;;;;;;;19.56;nan;95252.09;2058986;28;1138;-59
2022/05/04 01:48:14;;;;;;;;;;;;;;;19.56;nan;95257.41;2053635;28;1303;-59
2022/05/04 01:49:15;;;;;;;;;;;;;;;19.57;nan;95248.38;2059715;28;1914;-60
2022/05/04 01:50:18;;;;;;;;;;;;;;;19.57;nan;95251.06;2059962;28;1482;-60
2022/05/04 01:51:19;;;;;;;;;;;;;;;19.57;nan;95249.19;2064007;28;1975;-61
2022/05/04 01:52:21;;;;;;;;;;;;;;;19.57;nan;95248.38;2056694;28;1436;-60
2022/05/04 01:53:22;;;;;;;;;;;;;;;19.56;nan;95246.75;2057783;28;1697;-59
2022/05/04 01:54:24;;;;;;;;;;;;;;;19.57;nan;95243.06;2066929;28;1007;-60
2022/05/04 01:55:27;;;;;;;;;;;;;;;19.57;nan;95243.06;2058980;28;1685;-61
2022/05/04 01:56:29;;;;;;;;;;;;;;;19.57;nan;95235.06;2058800;28;1684;-60
2022/05/04 01:57:31;;;;;;;;;;;;;;;19.58;nan;95239.38;2059130;28;1654;-60
2022/05/04 01:58:33;;;;;;;;;;;;;;;19.58;nan;95240.22;2066441;28;1119;-60
2022/05/04 01:59:34;;;;;;;;;;;;;;;19.58;nan;95237.53;2059670;28;1540;-60
2022/05/04 02:00:36;;;;;;;;;;;;;;;19.59;nan;95241.03;2059379;28;1667;-60
2022/05/04 02:01:41;;;;;;;;;;;;;;;19.57;nan;95238.53;2058021;28;1297;-60
2022/05/04 02:02:43;;;;;;;;;;;;;;;19.58;nan;95244.72;2058775;28;1142;-60
2022/05/04 02:03:46;;;;;;;;;;;;;;;19.58;nan;95236.72;2057880;28;1521;-60
2022/05/04 02:04:49;;;;;;;;;;;;;;;19.57;nan;95230.53;2062838;28;1689;-60
2022/05/04 02:05:51;;;;;;;;;;;;;;;19.58;nan;95236.72;2066421;28;1045;-60
2022/05/04 02:06:52;;;;;;;;;;;;;;;19.58;nan;95239.38;2066808;28;1026;-60
2022/05/04 02:07:54;;;;;;;;;;;;;;;19.59;nan;95238.34;2064784;28;1497;-59
2022/05/04 02:08:57;;;;;;;;;;;;;;;19.58;nan;95239.38;2066923;28;1021;-60
2022/05/04 02:09:58;;;;;;;;;;;;;;;19.57;nan;95238.53;2066828;28;1078;-60
2022/05/04 02:11:00;;;;;;;;;;;;;;;19.58;nan;95244.72;2053950;28;1975;-60
2022/05/04 02:12:03;;;;;;;;;;;;;;;19.58;nan;95244.72;2053871;28;1653;-59
2022/05/04 02:13:05;;;;;;;;;;;;;;;19.57;nan;95245.72;2060841;28;1565;-61
2022/05/04 02:14:11;;;;;;;;;;;;;;;19.56;nan;95241.44;2065428;28;1449;-60
2022/05/04 02:15:12;;;;;;;;;;;;;;;19.56;nan;95241.44;2066727;28;1025;-60
2022/05/04 02:16:14;;;;;;;;;;;;;;;19.56;nan;95244.09;2066885;28;1030;-60
2022/05/04 02:17:16;;;;;;;;;;;;;;;19.56;nan;95241.44;2065253;28;1608;-60
2022/05/04 02:18:17;;;;;;;;;;;;;;;19.57;nan;95240.38;2060524;28;1903;-60
2022/05/04 02:19:19;;;;;;;;;;;;;;;19.57;nan;95237.72;2057829;28;1487;-60
2022/05/04 02:20:21;;;;;;;;;;;;;;;19.57;nan;95243.06;2058592;28;1636;-60
2022/05/04 02:21:22;;;;;;;;;;;;;;;19.56;nan;95236.09;2057968;28;1609;-60
2022/05/04 02:22:24;;;;;;;;;;;;;;;19.56;nan;95233.44;2054501;28;1505;-59
2022/05/04 02:23:25;;;;;;;;;;;;;;;19.56;nan;95233.44;2059959;28;1548;-60
2022/05/04 02:24:27;;;;;;;;;;;;;;;19.25;nan;95192.06;2065221;28;1726;-60
2022/05/04 02:25:29;;;;;;;;;;;;;;;19.55;nan;95235.28;2073683;28;1740;-59
2022/05/04 02:26:30;;;;;;;;;;;;;;;19.55;nan;95235.28;2073909;28;1100;-59
2022/05/04 02:27:32;;;;;;;;;;;;;;;19.54;nan;95236.28;2058935;28;1425;-61
2022/05/04 02:28:33;;;;;;;;;;;;;;;19.55;nan;95231.75;2063103;28;1526;-60
2022/05/04 02:29:35;;;;;;;;;;;;;;;19.55;nan;95229.09;2059528;28;1702;-60
2022/05/04 02:30:37;;;;;;;;;;;;;;;19.55;nan;95231.75;2065468;28;1584;-59
2022/05/04 02:31:39;;;;;;;;;;;;;;;19.56;nan;95228.09;2063134;28;1915;-60
2022/05/04 02:32:41;;;;;;;;;;;;;;;19.55;nan;95223.75;2066532;28;1065;-61
2022/05/04 02:33:44;;;;;;;;;;;;;;;19.55;nan;95231.75;2054869;28;1472;-58
2022/05/04 02:38:47;;;;;;;;;;;;;;;19.55;nan;95239.75;2063976;28;1528;-58
2022/05/04 02:39:48;;;;;;;;;;;;;;;19.55;nan;95245.09;2058654;28;1077;-60
2022/05/04 02:40:50;;;;;;;;;;;;;;;19.54;nan;95238.94;2057082;28;1540;-60
2022/05/04 02:41:52;;;;;;;;;;;;;;;19.55;nan;95250.41;2065814;28;1466;-59
2022/05/04 02:42:54;;;;;;;;;;;;;;;19.55;nan;95245.09;2065048;28;1445;-59
2022/05/04 02:43:56;;;;;;;;;;;;;;;19.54;nan;95238.13;2066762;28;1074;-58
2022/05/04 02:44:58;;;;;;;;;;;;;;;19.56;nan;95238.75;2062079;28;1534;-59
2022/05/04 02:46:11;;;;;;;;;;;;;;;19.55;nan;95242.44;2060728;28;1581;-58
2022/05/04 02:47:12;;;;;;;;;;;;;;;19.55;nan;95240.59;2066705;28;1085;-58
2022/05/04 02:48:14;;;;;;;;;;;;;;;19.55;nan;95239.75;2061060;28;1632;-59
2022/05/04 02:49:16;;;;;;;;;;;;;;;19.55;nan;95237.09;2059639;28;1661;-59
2022/05/04 02:50:17;;;;;;;;;;;;;;;19.55;nan;95245.94;2059871;28;1726;-59
2022/05/04 02:51:19;;;;;;;;;;;;;;;19.55;nan;95239.75;2060307;28;1555;-59
2022/05/04 02:52:21;;;;;;;;;;;;;;;19.54;nan;95249.59;2058601;28;1898;-59
2022/05/04 02:53:22;;;;;;;;;;;;;;;19.55;nan;95253.09;2061451;28;1564;-59
2022/05/04 02:54:24;;;;;;;;;;;;;;;19.54;nan;95246.94;2066467;28;992;-59
2022/05/04 02:55:26;;;;;;;;;;;;;;;19.54;nan;95241.59;2065583;28;1526;-59
2022/05/04 02:56:27;;;;;;;;;;;;;;;19.55;nan;95242.44;2061822;28;999;-59
2022/05/04 02:57:29;;;;;;;;;;;;;;;19.54;nan;95248.78;2059713;28;1639;-61
2022/05/04 02:58:31;;;;;;;;;;;;;;;19.55;nan;95250.41;2065933;28;1672;-59
2022/05/04 02:59:32;;;;;;;;;;;;;;;19.57;nan;95248.38;2058447;28;1657;-59
2022/05/04 03:00:34;;;;;;;;;;;;;;;19.55;nan;95259.25;2058115;28;999;-59
2022/05/04 03:02:56;;;;;;;;;;;;;;;19.56;nan;95260.91;2057196;28;1647;-60
2022/05/04 03:03:59;;;;;;;;;;;;;;;16.85;nan;95275.88;2064192;28;1449;-59
2022/05/04 03:05:02;;;;;;;;;;;;;;;14.95;nan;95270.09;2057784;28;1702;-58
2022/05/04 03:06:04;;;;;;;;;;;;;;;13.58;nan;95272.59;2057517;28;1664;-58
2022/05/04 03:07:06;;;;;;;;;;;;;;;12.98;nan;95284.03;2058421;28;999;-63
2022/05/04 03:08:07;;;;;;;;;;;;;;;12.79;nan;95289.53;2056371;28;1499;-58
2022/05/04 03:09:09;;;;;;;;;;;;;;;12.71;nan;95280.59;2056678;28;1670;-58
2022/05/04 03:10:13;;;;;;;;;;;;;;;12.31;nan;95290.88;2050521;28;806;-58
2022/05/04 03:12:35;;;;;;;;;;;;;;;11.73;nan;95292.97;2056528;28;1456;-57
2022/05/04 03:13:36;;;;;;;;;;;;;;;11.73;nan;95286.88;2066301;28;1018;-57
2022/05/04 03:14:38;;;;;;;;;;;;;;;11.54;nan;95282.56;2066080;28;1357;-58
2022/05/04 03:15:40;;;;;;;;;;;;;;;11.49;nan;95290.91;2063657;28;1467;-58
2022/05/04 03:16:41;;;;;;;;;;;;;;;11.66;nan;95294.53;2065199;28;1626;-57
2022/05/04 03:17:43;;;;;;;;;;;;;;;11.67;nan;95292.75;2060726;28;1490;-58
2022/05/04 03:18:45;;;;;;;;;;;;;;;11.38;nan;95291.13;2064278;28;1664;-57
2022/05/04 03:19:47;;;;;;;;;;;;;;;11.07;nan;95291.44;2044856;28;1565;-58
2022/05/04 03:20:49;;;;;;;;;;;;;;;10.89;nan;95287.88;2058228;28;1912;-58
2022/05/04 03:21:51;;;;;;;;;;;;;;;10.81;nan;95293.84;2064129;28;1512;-58
2022/05/04 03:22:53;;;;;;;;;;;;;;;10.96;nan;95290.78;2064155;28;1551;-57
2022/05/04 03:23:54;;;;;;;;;;;;;;;10.82;nan;95286.78;2063212;28;1645;-57
2022/05/04 03:24:56;;;;;;;;;;;;;;;10.96;nan;95290.78;2061548;28;1984;-57
2022/05/04 03:25:57;;;;;;;;;;;;;;;10.91;nan;95286.78;2058034;28;1623;-58
2022/05/04 03:26:59;;;;;;;;;;;;;;;10.89;nan;95288.72;2057202;28;1649;-57
2022/05/04 03:28:01;;;;;;;;;;;;;;;11.03;nan;95286.59;2065748;28;1069;-58
2022/05/04 03:29:03;;;;;;;;;;;;;;;10.83;nan;95289.25;2060473;28;1538;-57
2022/05/04 03:30:05;;;;;;;;;;;;;;;10.73;nan;95292.91;2066156;28;1013;-58
2022/05/04 03:31:06;;;;;;;;;;;;;;;10.69;nan;95292.34;2057067;28;1098;-58
2022/05/04 03:32:08;;;;;;;;;;;;;;;10.63;nan;95291.13;2064971;28;1973;-58
2022/05/04 03:33:10;;;;;;;;;;;;;;;10.65;nan;95288.38;2073008;28;1100;-58
2022/05/04 03:34:12;;;;;;;;;;;;;;;10.70;nan;95294.84;2072480;28;1667;-58
2022/05/04 03:35:13;;;;;;;;;;;;;;;10.80;nan;95299.25;2056531;28;1578;-57
2022/05/04 03:36:15;;;;;;;;;;;;;;;10.92;nan;95298.13;2057563;28;1081;-58
2022/05/04 03:37:17;;;;;;;;;;;;;;;10.81;nan;95301.75;2061631;28;1493;-58
2022/05/04 03:38:18;;;;;;;;;;;;;;;10.76;nan;95298.72;2064771;28;1675;-58
2022/05/04 03:39:20;;;;;;;;;;;;;;;10.69;nan;95300.25;2059968;28;1625;-58
2022/05/04 03:40:22;;;;;;;;;;;;;;;10.75;nan;95302.28;2059589;28;1625;-57
2022/05/04 03:41:24;;;;;;;;;;;;;;;10.50;nan;95301.13;2058544;28;999;-58
2022/05/04 03:42:25;;;;;;;;;;;;;;;10.52;nan;95295.72;2045720;28;1707;-59
2022/05/04 03:43:27;;;;;;;;;;;;;;;10.51;nan;95304.59;2053243;28;1618;-58
2022/05/04 03:44:28;;;;;;;;;;;;;;;10.48;nan;95298.63;2054255;28;1495;-58
2022/05/04 03:45:30;;;;;;;;;;;;;;;10.53;nan;95297.41;2055788;28;977;-60
2022/05/04 03:46:42;;;;;;;;;;;;;;;10.76;nan;95296.09;2054998;28;1741;-61
2022/05/04 03:47:43;;;;;;;;;;;;;;;10.82;nan;95292.88;2057574;28;1668;-58
2022/05/04 03:48:46;;;;;;;;;;;;;;;10.80;nan;95293.97;2056621;28;1458;-59
2022/05/04 03:49:47;;;;;;;;;;;;;;;11.70;nan;95295.09;2054809;28;1588;-59
2022/05/04 03:50:49;;;;;;;;;;;;;;;12.69;nan;95287.84;2055660;28;1005;-58
2022/05/04 03:51:51;;;;;;;;;;;;;;;13.56;nan;95288.56;2056078;28;1113;-57
2022/05/04 03:52:53;;;;;;;;;;;;;;;14.27;nan;95283.72;2055478;28;1976;-58
2022/05/04 03:53:55;;;;;;;;;;;;;;;15.21;nan;95284.88;2046913;28;1572;-59
2022/05/04 03:54:56;;;;;;;;;;;;;;;15.78;nan;95287.28;2057479;28;1616;-61
2022/05/04 03:55:58;;;;;;;;;;;;;;;16.22;nan;95289.31;2058021;28;1061;-59
2022/05/04 03:56:59;;;;;;;;;;;;;;;16.47;nan;95291.75;2053799;28;1404;-59
2022/05/04 03:58:01;;;;;;;;;;;;;;;16.63;nan;95293.47;2051866;28;1767;-57
2022/05/04 03:59:03;;;;;;;;;;;;;;;16.69;nan;95287.44;2054210;28;1455;-58
2022/05/04 04:00:05;;;;;;;;;;;;;;;16.72;nan;95295.84;2058954;28;1482;-57
2022/05/04 04:01:07;;;;;;;;;;;;;;;16.71;nan;95294.22;2056678;28;1424;-61
2022/05/04 04:02:11;;;;;;;;;;;;;;;16.92;nan;95298.84;2054065;28;1379;-62
2022/05/04 04:03:13;;;;;;;;;;;;;;;17.04;nan;95307.16;2054952;28;1723;-59
2022/05/04 04:04:15;;;;;;;;;;;;;;;17.12;nan;95312.41;2052066;28;1801;-59
2022/05/04 04:05:16;;;;;;;;;;;;;;;17.20;nan;95309.66;2047019;28;1560;-60
2022/05/04 04:06:18;;;;;;;;;;;;;;;17.26;nan;95320.56;2052169;28;1540;-64
2022/05/04 04:07:22;;;;;;;;;;;;;;;17.30;nan;95320.00;2054185;28;1214;-58
2022/05/04 04:08:24;;;;;;;;;;;;;;;17.33;nan;95327.63;2055227;28;1199;-57
2022/05/04 04:09:25;;;;;;;;;;;;;;;17.36;nan;95326.44;2056547;28;1650;-57
2022/05/04 04:10:27;;;;;;;;;;;;;;;17.38;nan;95335.00;2056106;28;2083;-59
2022/05/04 04:11:29;;;;;;;;;;;;;;;16.24;nan;95340.31;2054201;28;1499;-58
2022/05/04 04:12:31;;;;;;;;;;;;;;;13.60;nan;95331.34;2053699;28;1939;-60
2022/05/04 04:13:33;;;;;;;;;;;;;;;12.24;nan;95335.41;2055465;28;1480;-58
2022/05/04 04:14:34;;;;;;;;;;;;;;;11.53;nan;95330.91;2054780;28;1683;-58
2022/05/04 04:15:36;;;;;;;;;;;;;;;11.47;nan;95318.34;2055074;28;1010;-59
2022/05/04 04:16:38;;;;;;;;;;;;;;;11.48;nan;95317.38;2044629;28;1212;-58
2022/05/04 04:17:39;;;;;;;;;;;;;;;12.64;nan;95326.19;2057070;28;1494;-58
2022/05/04 04:18:45;;;;;;;;;;;;;;;13.65;nan;95315.00;2056362;28;1464;-57
2022/05/04 04:21:50;;;;;;;;;;;;;;;14.43;nan;95318.09;2060522;28;1466;-57
2022/05/04 04:22:28;;;;;;;;;;;;;;;15.75;nan;95321.22;2056511;28;1356;-58
2022/05/04 04:23:30;;;;;;;;;;;;;;;16.04;nan;95324.06;2056821;28;1061;-59
2022/05/04 04:24:31;;;;;;;;;;;;;;;16.26;nan;95329.56;2056937;28;1069;-58
2022/05/04 04:25:33;;;;;;;;;;;;;;;16.44;nan;95326.59;2057619;28;1097;-58
2022/05/04 04:26:37;;;;;;;;;;;;;;;16.56;nan;95322.53;2056484;28;1034;-57
2022/05/04 04:27:39;;;;;;;;;;;;;;;16.67;nan;95327.41;2052371;28;1226;-57
2022/05/04 04:28:40;;;;;;;;;;;;;;;16.75;nan;95322.00;2054483;28;1391;-56
2022/05/04 04:29:42;;;;;;;;;;;;;;;16.83;nan;95323.00;2056975;28;1027;-57
2022/05/04 04:30:43;;;;;;;;;;;;;;;16.89;nan;95322.25;2057266;28;1078;-57
2022/05/04 04:31:45;;;;;;;;;;;;;;;16.93;nan;95315.56;2057682;28;1118;-56
2022/05/04 04:32:47;;;;;;;;;;;;;;;16.97;nan;95320.34;2057669;28;1895;-56
2022/05/04 04:33:48;;;;;;;;;;;;;;;17.03;nan;95329.41;2057246;28;841;-57
2022/05/04 04:34:50;;;;;;;;;;;;;;;17.06;nan;95321.09;2057495;28;1602;-58
2022/05/04 04:35:53;;;;;;;;;;;;;;;17.09;nan;95328.69;2057975;28;1062;-57
2022/05/04 04:36:54;;;;;;;;;;;;;;;17.12;nan;95315.06;2057635;28;995;-57
2022/05/04 04:37:56;;;;;;;;;;;;;;;17.14;nan;95310.38;2057743;28;1090;-58
2022/05/04 04:38:58;;;;;;;;;;;;;;;17.17;nan;95315.34;2052909;28;1193;-57
2022/05/04 04:39:59;;;;;;;;;;;;;;;17.20;nan;95314.97;2053370;28;1175;-58
2022/05/04 04:41:01;;;;;;;;;;;;;;;17.23;nan;95312.97;2064827;28;1019;-57
2022/05/04 04:42:02;;;;;;;;;;;;;;;17.25;nan;95309.13;2063769;28;1010;-57
2022/05/04 04:43:08;;;;;;;;;;;;;;;17.28;nan;95315.91;2057252;28;1104;-60
2022/05/04 04:44:11;;;;;;;;;;;;;;;17.30;nan;95322.69;2056922;28;1602;-59
2022/05/04 04:45:12;;;;;;;;;;;;;;;17.34;nan;95320.47;2063759;28;1226;-57
2022/05/04 04:46:14;;;;;;;;;;;;;;;17.35;nan;95322.94;2064440;28;1026;-57
2022/05/04 04:47:15;;;;;;;;;;;;;;;17.36;nan;95327.25;2056857;28;964;-57
2022/05/04 04:48:17;;;;;;;;;;;;;;;17.38;nan;95324.38;2056883;28;791;-57
2022/05/04 04:49:19;;;;;;;;;;;;;;;17.40;nan;95323.19;2056417;28;1108;-57
2022/05/04 04:50:20;;;;;;;;;;;;;;;17.41;nan;95321.38;2051712;28;1208;-60
2022/05/04 04:51:22;;;;;;;;;;;;;;;17.43;nan;95324.66;2053262;28;1563;-58
2022/05/04 04:52:24;;;;;;;;;;;;;;;17.45;nan;95332.47;2056770;28;1109;-58
2022/05/04 04:53:26;;;;;;;;;;;;;;;17.46;nan;95329.63;2056785;28;1906;-57
2022/05/04 04:54:27;;;;;;;;;;;;;;;17.47;nan;95328.63;2056715;28;974;-57
2022/05/04 04:55:29;;;;;;;;;;;;;;;17.48;nan;95327.59;2056897;28;1018;-58
2022/05/04 04:56:30;;;;;;;;;;;;;;;17.50;nan;95324.75;2056559;28;1090;-58
2022/05/04 04:57:33;;;;;;;;;;;;;;;17.51;nan;95323.75;2057529;28;999;-57
2022/05/04 04:58:35;;;;;;;;;;;;;;;17.51;nan;95327.22;2057569;28;1169;-57
2022/05/04 04:59:36;;;;;;;;;;;;;;;17.53;nan;95327.88;2064162;28;1137;-57
2022/05/04 05:00:38;;;;;;;;;;;;;;;17.55;nan;95325.84;2064507;28;1014;-57
2022/05/04 05:01:39;;;;;;;;;;;;;;;17.56;nan;95330.16;2052868;28;1228;-57
2022/05/04 05:02:41;;;;;;;;;;;;;;;17.56;nan;95319.53;2052730;28;1630;-56
2022/05/04 05:03:43;;;;;;;;;;;;;;;17.57;nan;95318.53;2057240;28;991;-57
2022/05/04 05:04:44;;;;;;;;;;;;;;;17.58;nan;95322.81;2057441;28;1156;-57
2022/05/04 05:05:46;;;;;;;;;;;;;;;17.60;nan;95326.13;2057626;28;1018;-57
2022/05/04 05:06:48;;;;;;;;;;;;;;;17.62;nan;95324.09;2057679;28;1152;-58
2022/05/04 05:07:49;;;;;;;;;;;;;;;17.63;nan;95328.41;2057541;28;987;-58
2022/05/04 05:08:51;;;;;;;;;;;;;;;17.65;nan;95329.03;2057651;28;1103;-57
2022/05/04 05:09:52;;;;;;;;;;;;;;;17.68;nan;95327.03;2057752;28;1014;-58
2022/05/04 05:10:54;;;;;;;;;;;;;;;17.68;nan;95327.84;2057237;28;1038;-57
2022/05/04 05:11:56;;;;;;;;;;;;;;;17.69;nan;95329.50;2057702;28;1173;-57
2022/05/04 05:12:58;;;;;;;;;;;;;;;17.70;nan;95332.97;2052614;28;1930;-58
2022/05/04 05:16:39;;;;;;;;;;;;;;;17.75;nan;95334.09;2056711;28;1102;-57
2022/05/04 05:17:41;;;;;;;;;;;;;;;17.77;nan;95341.91;2058865;28;1041;-57
2022/05/04 05:18:43;;;;;;;;;;;;;;;17.78;nan;95349.66;2056782;28;1089;-58
2022/05/04 05:19:44;;;;;;;;;;;;;;;17.79;nan;95345.19;2057371;28;1085;-57
2022/05/04 05:20:46;;;;;;;;;;;;;;;17.81;nan;95335.19;2057704;28;1042;-57
2022/05/04 05:21:51;;;;;;;;;;;;;;;17.81;nan;95340.50;2057541;28;1029;-57
2022/05/04 05:22:53;;;;;;;;;;;;;;;17.83;nan;95344.63;2056925;28;1015;-57
2022/05/04 05:23:54;;;;;;;;;;;;;;;17.86;nan;95340.78;2052846;28;1018;-58
2022/05/04 05:24:56;;;;;;;;;;;;;;;17.88;nan;95342.22;2052701;28;1428;-57
2022/05/04 05:25:59;;;;;;;;;;;;;;;17.91;nan;95343.69;2057229;28;1149;-58
2022/05/04 05:27:00;;;;;;;;;;;;;;;17.92;nan;95353.31;2056864;28;999;-57
2022/05/04 05:28:02;;;;;;;;;;;;;;;17.93;nan;95343.53;2056836;28;1370;-57
2022/05/04 05:29:04;;;;;;;;;;;;;;;17.93;nan;95341.69;2057574;28;930;-57
2022/05/04 05:30:12;;;;;;;;;;;;;;;17.94;nan;95332.69;2057690;28;1044;-59
2022/05/04 05:31:14;;;;;;;;;;;;;;;17.96;nan;95335.19;2057497;28;983;-58
2022/05/04 05:32:16;;;;;;;;;;;;;;;17.95;nan;95346.81;2057395;28;1022;-58
2022/05/04 05:33:17;;;;;;;;;;;;;;;17.96;nan;95348.47;2056996;28;1977;-57
2022/05/04 05:34:19;;;;;;;;;;;;;;;17.97;nan;95347.44;2057418;28;1025;-58
2022/05/04 05:35:21;;;;;;;;;;;;;;;17.97;nan;95347.44;2052989;28;1019;-58
2022/05/04 05:36:22;;;;;;;;;;;;;;;17.98;nan;95341.97;2052640;28;1148;-57
2022/05/04 05:37:24;;;;;;;;;;;;;;;17.98;nan;95341.97;2057621;28;1106;-57
2022/05/04 05:38:27;;;;;;;;;;;;;;;17.99;nan;95346.25;2057398;28;1037;-58
2022/05/04 05:39:28;;;;;;;;;;;;;;;18.00;nan;95331.13;2057496;28;1074;-58
2022/05/04 05:40:30;;;;;;;;;;;;;;;18.01;nan;95335.41;2057107;28;1084;-60
2022/05/04 05:41:32;;;;;;;;;;;;;;;18.01;nan;95327.44;2057455;28;1355;-58
2022/05/04 05:42:35;;;;;;;;;;;;;;;18.02;nan;95331.75;2057516;28;1105;-57
2022/05/04 05:43:36;;;;;;;;;;;;;;;18.01;nan;95332.75;2057445;28;1003;-57
2022/05/04 05:44:38;;;;;;;;;;;;;;;18.01;nan;95333.59;2057453;28;1162;-57
2022/05/04 05:45:40;;;;;;;;;;;;;;;18.02;nan;95339.75;2057523;28;794;-58
2022/05/04 05:46:41;;;;;;;;;;;;;;;18.03;nan;95338.72;2052804;28;995;-59
2022/05/04 05:47:43;;;;;;;;;;;;;;;18.04;nan;95338.53;2052298;28;1065;-57
2022/05/04 05:48:47;;;;;;;;;;;;;;;18.06;nan;95335.69;2057067;28;1125;-58